Terminal Aerodrome Forecast
Issued by NWS Wakefield, VA

Home | Current Version | Previous Version | Text Only | Print | Product List | Glossary On
Versions: 1 2 3 4 5 6 7 8 9 10 11 12 13 14 15 16 17
906
FTUS41 KAKQ 082343
TAFORF
TAF
KORF 082343Z 0900/0924 09008KT P6SM OVC090
     FM090300 16008KT 6SM -RA BR OVC025
     FM090500 21008KT 6SM BR OVC020
     FM091000 27006KT P6SM OVC020
     FM091500 25012G18KT P6SM BKN035=

USA.gov is the U.S. government's official web portal to all federal, state and local government web resources and services.